Time;durP1;ratioP1;P1;durP2;ratioP2;P2;SDS_P1;SDS_P2;PMS_P1;PMS_P2;Temp;Humidity;BMP_temperature;BMP_pressure;BME280_temperature;BME280_humidity;BME280_pressure;Samples;Min_cycle;Max_cycle;Signal;HPM_P1;HPM_P2
2021/09/03 00:00:23;;;;;;;;;;;;;;;13.55;72.83;99822.08;431570;121;921750;-78
2021/09/03 00:01:26;;;;;;;;;;;;;;;13.54;73.22;99820.42;437106;119;921684;-78
2021/09/03 00:02:30;;;;;;;;;;;;;;;13.52;73.04;99817.09;444155;119;921520;-77
2021/09/03 00:03:33;;;;;;;;;;;;;;;13.51;73.02;99827.22;444381;117;921582;-78
2021/09/03 00:04:36;;;;;;;;;;;;;;;13.49;72.64;99834.88;444742;119;921603;-78
2021/09/03 00:05:40;;;;;;;;;;;;;;;13.48;72.77;99833.21;445124;117;921530;-77
2021/09/03 00:06:43;;;;;;;;;;;;;;;13.46;72.73;99829.88;444802;118;921568;-78
2021/09/03 00:07:47;;;;;;;;;;;;;;;13.44;72.80;99831.23;445829;118;921514;-77
2021/09/03 00:08:50;;;;;;;;;;;;;;;13.44;72.91;99836.71;444688;118;921593;-77
2021/09/03 00:09:53;;;;;;;;;;;;;;;13.44;72.83;99837.54;445298;119;921575;-76
2021/09/03 00:10:56;;;;;;;;;;;;;;;13.46;72.98;99842.75;445834;117;922006;-77
2021/09/03 00:11:59;;;;;;;;;;;;;;;13.49;72.86;99839.52;449220;114;921616;-78
2021/09/03 00:13:02;;;;;;;;;;;;;;;13.50;72.53;99843.92;455075;114;921643;-77
2021/09/03 00:14:06;;;;;;;;;;;;;;;13.50;72.49;99843.92;455543;116;921533;-77
2021/09/03 00:15:11;;;;;;;;;;;;;;;13.52;72.53;99842.57;456031;116;921426;-78
2021/09/03 00:16:14;;;;;;;;;;;;;;;13.53;72.35;99849.72;455613;116;921581;-77
2021/09/03 00:17:17;;;;;;;;;;;;;;;13.55;72.32;99846.73;452534;116;921612;-78
2021/09/03 00:18:20;;;;;;;;;;;;;;;13.55;72.38;99841.25;452549;114;921499;-79
2021/09/03 00:19:23;;;;;;;;;;;;;;;13.56;72.39;99848.39;453665;115;921725;-78
2021/09/03 00:20:29;;;;;;;;;;;;;;;13.58;72.24;99846.21;451187;115;921772;-76
2021/09/03 00:21:33;;;;;;;;;;;;;;;13.58;72.21;99847.05;450130;115;921678;-77
2021/09/03 00:22:36;;;;;;;;;;;;;;;13.59;72.02;99847.87;452941;114;921667;-78
2021/09/03 00:23:39;;;;;;;;;;;;;;;13.59;72.07;99859.66;454574;115;921719;-77
2021/09/03 00:24:43;;;;;;;;;;;;;;;13.59;72.45;99853.36;454483;114;921586;-78
2021/09/03 00:25:46;;;;;;;;;;;;;;;13.58;72.76;99852.52;450104;116;921630;-78
2021/09/03 00:26:50;;;;;;;;;;;;;;;13.57;73.13;99853.59;449366;115;921833;-77
2021/09/03 00:27:53;;;;;;;;;;;;;;;13.56;73.25;99862.89;459005;113;921706;-77
2021/09/03 00:28:56;;;;;;;;;;;;;;;13.53;73.22;99865.31;458637;113;921491;-77
2021/09/03 00:29:59;;;;;;;;;;;;;;;13.52;73.25;99866.39;450733;115;921482;-77
2021/09/03 00:31:02;;;;;;;;;;;;;;;13.48;73.40;99863.33;454396;115;921717;-77
2021/09/03 00:32:06;;;;;;;;;;;;;;;13.46;73.52;99876.44;452631;115;921693;-77
2021/09/03 00:33:09;;;;;;;;;;;;;;;13.43;73.67;99870.64;459241;115;921614;-78
2021/09/03 00:34:12;;;;;;;;;;;;;;;13.37;73.94;99861.52;453792;115;921607;-77
2021/09/03 00:35:15;;;;;;;;;;;;;;;13.34;74.31;99862.84;451272;116;921726;-78
2021/09/03 00:36:18;;;;;;;;;;;;;;;13.32;74.73;99875.14;456590;114;921542;-77
2021/09/03 00:37:21;;;;;;;;;;;;;;;13.31;74.99;99868.83;456568;116;921554;-76
2021/09/03 00:38:25;;;;;;;;;;;;;;;13.33;75.08;99865.84;455553;114;921629;-77
2021/09/03 00:39:28;;;;;;;;;;;;;;;13.33;74.88;99876.80;456847;114;921606;-78
2021/09/03 00:40:32;;;;;;;;;;;;;;;13.28;86.04;99885.77;454825;114;921591;-77
2021/09/03 00:41:35;;;;;;;;;;;;;;;13.28;77.93;99882.20;454564;116;921600;-77
2021/09/03 00:42:38;;;;;;;;;;;;;;;13.23;78.54;99877.45;454637;114;921734;-77
2021/09/03 00:43:41;;;;;;;;;;;;;;;13.21;78.43;99873.31;453436;115;921563;-78
2021/09/03 00:44:44;;;;;;;;;;;;;;;13.18;77.79;99876.53;454540;114;921588;-78
2021/09/03 00:45:47;;;;;;;;;;;;;;;13.15;77.55;99877.05;454445;114;922161;-77
2021/09/03 00:46:51;;;;;;;;;;;;;;;13.13;77.74;99884.66;454125;115;921767;-77
2021/09/03 00:47:54;;;;;;;;;;;;;;;13.11;77.69;99881.34;453624;114;921614;-78
2021/09/03 00:48:58;;;;;;;;;;;;;;;13.10;78.02;99882.41;455061;114;921525;-76
2021/09/03 00:50:01;;;;;;;;;;;;;;;13.10;78.70;99888.71;454128;114;921576;-77
2021/09/03 00:51:04;;;;;;;;;;;;;;;13.10;78.91;99887.88;454462;115;921542;-76
2021/09/03 00:52:07;;;;;;;;;;;;;;;13.09;79.09;99887.05;454209;116;921452;-77
2021/09/03 00:53:11;;;;;;;;;;;;;;;13.08;79.18;99888.13;454738;114;921545;-77
2021/09/03 00:54:14;;;;;;;;;;;;;;;13.06;79.27;99886.72;455556;114;921553;-78
2021/09/03 00:55:17;;;;;;;;;;;;;;;13.05;79.04;99885.06;455592;114;921569;-78
2021/09/03 00:56:20;;;;;;;;;;;;;;;13.02;79.09;99886.37;455431;114;921838;-77
2021/09/03 00:57:24;;;;;;;;;;;;;;;13.03;79.22;99898.15;456548;114;921794;-77
2021/09/03 00:58:28;;;;;;;;;;;;;;;13.03;79.22;99898.98;457628;115;921587;-78
2021/09/03 00:59:31;;;;;;;;;;;;;;;13.03;79.28;99901.72;454942;116;921496;-78
2021/09/03 01:00:34;;;;;;;;;;;;;;;13.03;79.28;99896.24;455046;115;921624;-77
2021/09/03 01:01:38;;;;;;;;;;;;;;;13.04;79.45;99897.91;454268;115;921571;-75
2021/09/03 01:02:41;;;;;;;;;;;;;;;13.07;79.56;99899.30;450337;115;921696;-77
2021/09/03 01:03:45;;;;;;;;;;;;;;;13.07;79.55;99894.66;449527;115;921559;-76
2021/09/03 01:04:48;;;;;;;;;;;;;;;13.09;79.27;99897.16;455194;114;921559;-77
2021/09/03 01:05:52;;;;;;;;;;;;;;;13.10;79.12;99898.83;450889;116;921679;-76
2021/09/03 01:06:56;;;;;;;;;;;;;;;13.09;79.16;99897.99;458010;113;921686;-77
2021/09/03 01:07:59;;;;;;;;;;;;;;;13.09;79.16;99906.20;450982;116;921975;-76
2021/09/03 01:09:02;;;;;;;;;;;;;;;13.09;78.84;99908.11;454515;115;921764;-77
2021/09/03 01:10:06;;;;;;;;;;;;;;;13.08;79.08;99901.80;454597;114;921627;-76
2021/09/03 01:11:09;;;;;;;;;;;;;;;13.07;79.19;99902.87;455277;115;921453;-77
2021/09/03 01:12:13;;;;;;;;;;;;;;;13.07;79.16;99907.52;453667;116;921549;-76
2021/09/03 01:13:16;;;;;;;;;;;;;;;13.06;79.24;99905.88;454275;115;921686;-76
2021/09/03 01:14:19;;;;;;;;;;;;;;;13.04;79.22;99908.86;454763;114;921566;-77
2021/09/03 01:15:22;;;;;;;;;;;;;;;13.04;79.41;99913.50;456010;114;921511;-76
2021/09/03 01:16:25;;;;;;;;;;;;;;;13.02;79.30;99908.27;450101;115;921633;-76
2021/09/03 01:17:28;;;;;;;;;;;;;;;13.01;79.58;99905.80;453740;115;921518;-77
2021/09/03 01:18:31;;;;;;;;;;;;;;;13.00;79.78;99913.17;454818;115;921617;-77
2021/09/03 01:19:34;;;;;;;;;;;;;;;13.00;79.91;99909.61;451002;115;921562;-76
2021/09/03 01:20:37;;;;;;;;;;;;;;;12.98;80.05;99912.58;455815;115;921621;-76
2021/09/03 01:21:41;;;;;;;;;;;;;;;12.99;80.09;99911.51;455310;116;921542;-77
2021/09/03 01:22:44;;;;;;;;;;;;;;;13.00;80.08;99909.61;455697;114;921549;-76
2021/09/03 01:23:47;;;;;;;;;;;;;;;12.99;79.87;99916.98;453918;115;921671;-76
2021/09/03 01:24:50;;;;;;;;;;;;;;;12.98;79.32;99920.79;459979;113;921512;-76
2021/09/03 01:25:53;;;;;;;;;;;;;;;12.96;79.49;99912.81;451798;115;921496;-77
2021/09/03 01:26:56;;;;;;;;;;;;;;;12.94;79.69;99909.52;453472;116;921492;-78
2021/09/03 01:27:59;;;;;;;;;;;;;;;12.94;79.80;99917.73;452489;115;921499;-77
2021/09/03 01:29:02;;;;;;;;;;;;;;;12.94;79.93;99914.16;451860;116;921541;-77
2021/09/03 01:30:07;;;;;;;;;;;;;;;12.96;80.06;99910.08;453692;116;924909;-78
2021/09/03 01:31:10;;;;;;;;;;;;;;;12.98;79.98;99911.75;453208;115;921470;-77
2021/09/03 01:32:14;;;;;;;;;;;;;;;12.99;79.78;99911.51;452673;115;921550;-77
2021/09/03 01:33:17;;;;;;;;;;;;;;;13.01;79.73;99916.74;452906;115;921520;-77
2021/09/03 01:34:20;;;;;;;;;;;;;;;13.00;79.66;99915.91;453743;115;922165;-77
2021/09/03 01:35:23;;;;;;;;;;;;;;;13.00;79.49;99920.55;454923;115;921617;-77
2021/09/03 01:36:30;;;;;;;;;;;;;;;13.00;79.15;99920.55;458123;113;921577;-77
2021/09/03 01:37:34;;;;;;;;;;;;;;;12.99;79.03;99916.15;454578;115;921792;-78
2021/09/03 01:38:37;;;;;;;;;;;;;;;13.00;79.03;99926.02;453939;115;921579;-76
2021/09/03 01:39:40;;;;;;;;;;;;;;;12.99;79.09;99924.36;458427;115;921449;-76
2021/09/03 01:40:43;;;;;;;;;;;;;;;13.00;79.05;99926.02;459293;115;921534;-76
2021/09/03 01:41:47;;;;;;;;;;;;;;;13.00;79.03;99926.86;451705;116;921498;-77
2021/09/03 01:42:50;;;;;;;;;;;;;;;13.01;79.05;99923.02;455079;115;921453;-76
2021/09/03 01:43:54;;;;;;;;;;;;;;;13.03;78.92;99920.05;455466;114;921512;-77
2021/09/03 01:44:57;;;;;;;;;;;;;;;13.03;78.63;99922.78;455791;114;921457;-76
2021/09/03 01:46:00;;;;;;;;;;;;;;;13.04;78.31;99932.66;456352;115;922012;-75
2021/09/03 01:47:03;;;;;;;;;;;;;;;13.04;78.43;99929.92;452632;115;921630;-76
2021/09/03 01:48:07;;;;;;;;;;;;;;;13.04;78.52;99938.13;452195;115;921629;-75
2021/09/03 01:49:09;;;;;;;;;;;;;;;13.04;78.57;99929.92;450548;115;921598;-76
2021/09/03 01:50:13;;;;;;;;;;;;;;;13.04;78.59;99932.66;449785;115;921536;-75
2021/09/03 01:51:17;;;;;;;;;;;;;;;13.03;78.53;99934.56;460800;113;921670;-76
2021/09/03 01:52:20;;;;;;;;;;;;;;;13.03;78.63;99936.46;449053;116;921571;-76
2021/09/03 01:53:24;;;;;;;;;;;;;;;13.02;78.75;99927.42;445808;118;921836;-77
2021/09/03 01:54:27;;;;;;;;;;;;;;;13.01;78.63;99936.70;447641;117;921660;-76
2021/09/03 01:55:30;;;;;;;;;;;;;;;13.01;78.69;99935.90;447476;116;921975;-77
2021/09/03 01:56:33;;;;;;;;;;;;;;;12.98;78.77;99933.64;449008;116;921497;-76
2021/09/03 01:57:37;;;;;;;;;;;;;;;12.96;78.86;99937.44;454530;115;921709;-76
2021/09/03 01:58:40;;;;;;;;;;;;;;;12.94;78.92;99934.14;453453;115;921494;-75
2021/09/03 01:59:43;;;;;;;;;;;;;;;12.92;78.96;99939.02;451328;116;921529;-75
2021/09/03 02:00:46;;;;;;;;;;;;;;;12.90;78.96;99941.16;449887;116;921534;-74
2021/09/03 02:01:49;;;;;;;;;;;;;;;12.89;78.95;99936.79;448772;116;921607;-77
2021/09/03 02:02:53;;;;;;;;;;;;;;;12.87;78.96;99936.19;454871;114;921710;-76
2021/09/03 02:03:56;;;;;;;;;;;;;;;12.88;78.91;99945.23;454776;116;921565;-78
2021/09/03 02:04:59;;;;;;;;;;;;;;;12.85;78.71;99940.23;454712;114;921498;-77
2021/09/03 02:06:03;;;;;;;;;;;;;;;12.83;78.30;99945.14;454182;116;921538;-77
2021/09/03 02:07:06;;;;;;;;;;;;;;;12.82;78.20;99951.68;455608;116;921616;-76
2021/09/03 02:08:09;;;;;;;;;;;;;;;12.79;77.68;99958.45;455914;114;921620;-76
2021/09/03 02:09:12;;;;;;;;;;;;;;;12.76;77.64;99953.49;455444;114;921497;-77
2021/09/03 02:10:15;;;;;;;;;;;;;;;12.74;77.76;99954.80;456759;115;921499;-77
2021/09/03 02:11:18;;;;;;;;;;;;;;;12.71;77.83;99955.30;451630;117;921532;-77
2021/09/03 02:12:21;;;;;;;;;;;;;;;12.72;77.93;99960.53;454550;115;921715;-73
2021/09/03 02:13:25;;;;;;;;;;;;;;;12.70;77.47;99962.67;452663;115;921718;-77
2021/09/03 02:14:28;;;;;;;;;;;;;;;12.69;77.58;99955.53;448518;116;921483;-78
2021/09/03 02:15:31;;;;;;;;;;;;;;;12.68;77.20;99967.55;447823;116;921444;-76
2021/09/03 02:16:35;;;;;;;;;;;;;;;12.67;76.88;99968.64;448205;117;921529;-77
2021/09/03 02:17:38;;;;;;;;;;;;;;;12.66;76.72;99966.14;448118;117;921569;-76
2021/09/03 02:18:41;;;;;;;;;;;;;;;12.64;76.33;99969.11;447043;116;921649;-76
2021/09/03 02:19:45;;;;;;;;;;;;;;;12.64;76.20;99971.84;441495;120;921596;-77
2021/09/03 02:20:48;;;;;;;;;;;;;;;12.63;76.46;99972.91;441697;118;921639;-76
2021/09/03 02:21:51;;;;;;;;;;;;;;;12.63;76.34;99972.08;446024;116;921683;-76
2021/09/03 02:22:54;;;;;;;;;;;;;;;12.63;76.34;99974.81;446739;116;921556;-75
2021/09/03 02:23:57;;;;;;;;;;;;;;;12.62;76.41;99976.75;455148;114;921648;-77
2021/09/03 02:25:00;;;;;;;;;;;;;;;12.63;76.41;99974.81;454630;115;921524;-76
2021/09/03 02:26:04;;;;;;;;;;;;;;;12.63;76.30;99981.12;455312;114;921563;-75
2021/09/03 02:27:07;;;;;;;;;;;;;;;12.65;76.22;99984.45;455583;114;921525;-75
2021/09/03 02:28:12;;;;;;;;;;;;;;;12.66;75.76;99979.81;454842;114;921453;-75
2021/09/03 02:29:15;;;;;;;;;;;;;;;12.67;75.42;99982.31;455065;116;922087;-77
2021/09/03 02:30:18;;;;;;;;;;;;;;;12.66;75.47;99988.86;455937;114;921580;-78
2021/09/03 02:31:22;;;;;;;;;;;;;;;12.66;74.96;99990.75;451233;116;921474;-76
2021/09/03 02:32:25;;;;;;;;;;;;;;;12.66;74.83;99985.28;457193;115;921622;-77
2021/09/03 02:33:28;;;;;;;;;;;;;;;12.67;74.54;99989.69;449960;116;921523;-76
2021/09/03 02:34:31;;;;;;;;;;;;;;;12.66;74.71;99993.49;447643;118;921652;-75
2021/09/03 02:35:34;;;;;;;;;;;;;;;12.65;74.39;99991.83;447022;116;921496;-76
2021/09/03 02:36:37;;;;;;;;;;;;;;;12.65;74.54;99994.56;449565;116;922086;-77
2021/09/03 02:37:41;;;;;;;;;;;;;;;12.65;74.49;99997.30;450875;116;921507;-77
2021/09/03 02:38:44;;;;;;;;;;;;;;;12.65;74.39;100000.03;446924;116;921500;-74
2021/09/03 02:39:47;;;;;;;;;;;;;;;12.65;73.93;99991.83;448888;116;921590;-76
2021/09/03 02:40:51;;;;;;;;;;;;;;;12.64;73.52;99998.36;452384;116;921721;-76
2021/09/03 02:41:54;;;;;;;;;;;;;;;12.63;73.22;99992.06;447061;116;921578;-77
2021/09/03 02:42:57;;;;;;;;;;;;;;;12.63;73.56;99999.43;451216;116;921515;-77
2021/09/03 02:44:01;;;;;;;;;;;;;;;12.62;73.64;100006.83;452322;117;921584;-75
2021/09/03 02:45:05;;;;;;;;;;;;;;;12.64;73.59;100006.56;452173;116;921620;-76
2021/09/03 02:46:08;;;;;;;;;;;;;;;12.65;73.62;100006.33;451712;117;921569;-75
2021/09/03 02:47:12;;;;;;;;;;;;;;;12.66;73.77;100004.44;452098;115;921388;-75
2021/09/03 02:48:15;;;;;;;;;;;;;;;12.68;73.62;100010.50;453133;115;921674;-76
2021/09/03 02:49:18;;;;;;;;;;;;;;;12.68;73.24;100019.52;452990;115;921633;-77
2021/09/03 02:50:21;;;;;;;;;;;;;;;12.67;73.09;100015.14;453239;115;921484;-76
2021/09/03 02:51:26;;;;;;;;;;;;;;;12.67;73.12;100015.14;452696;115;921468;-75
2021/09/03 02:52:29;;;;;;;;;;;;;;;12.65;72.23;100008.23;452592;115;921539;-77
2021/09/03 02:53:33;;;;;;;;;;;;;;;12.63;72.26;100019.41;454075;115;921487;-76
2021/09/03 02:54:36;;;;;;;;;;;;;;;12.59;72.40;100012.77;454628;117;921562;-76
2021/09/03 02:55:39;;;;;;;;;;;;;;;12.57;72.40;100022.30;450491;116;921854;-77
2021/09/03 02:56:42;;;;;;;;;;;;;;;12.54;71.61;100021.70;448697;116;921682;-76
2021/09/03 02:57:45;;;;;;;;;;;;;;;12.54;72.16;100031.81;451330;116;921652;-76
2021/09/03 02:58:48;;;;;;;;;;;;;;;12.53;71.68;100030.97;449201;116;921630;-77
2021/09/03 02:59:52;;;;;;;;;;;;;;;12.52;71.58;100028.47;455825;114;921698;-76
2021/09/03 03:00:55;;;;;;;;;;;;;;;12.50;71.61;100034.20;452777;115;921589;-76
2021/09/03 03:01:58;;;;;;;;;;;;;;;12.49;71.82;100029.80;454902;114;921613;-76
2021/09/03 03:03:02;;;;;;;;;;;;;;;12.49;71.85;100037.17;455622;114;921665;-77
2021/09/03 03:04:05;;;;;;;;;;;;;;;12.48;71.89;100036.34;454805;114;921511;-75
2021/09/03 03:05:09;;;;;;;;;;;;;;;12.47;71.25;100031.94;453817;116;921588;-75
2021/09/03 03:06:12;;;;;;;;;;;;;;;12.47;71.40;100033.83;454162;116;921697;-77
2021/09/03 03:07:15;;;;;;;;;;;;;;;12.46;71.31;100045.83;453903;114;921630;-75
2021/09/03 03:08:18;;;;;;;;;;;;;;;12.45;71.29;100041.47;453969;114;921673;-75
2021/09/03 03:09:21;;;;;;;;;;;;;;;12.44;71.45;100043.36;454519;115;921441;-75
2021/09/03 03:10:25;;;;;;;;;;;;;;;12.44;71.31;100046.09;454278;114;921629;-75
2021/09/03 03:11:28;;;;;;;;;;;;;;;12.43;71.09;100043.59;455380;114;921510;-76
2021/09/03 03:12:31;;;;;;;;;;;;;;;12.41;71.26;100048.45;454370;116;921518;-75
2021/09/03 03:13:34;;;;;;;;;;;;;;;12.39;71.33;100043.25;454927;116;921517;-77
2021/09/03 03:14:38;;;;;;;;;;;;;;;12.39;71.25;100050.63;454998;115;921526;-76
2021/09/03 03:15:41;;;;;;;;;;;;;;;12.39;70.70;100053.36;454474;115;921487;-78
2021/09/03 03:16:44;;;;;;;;;;;;;;;12.38;70.82;100055.25;454710;116;921523;-77
2021/09/03 03:17:47;;;;;;;;;;;;;;;12.37;70.94;100058.22;455109;115;921477;-76
2021/09/03 03:18:50;;;;;;;;;;;;;;;12.32;70.09;100067.14;445505;117;921609;-77
2021/09/03 03:19:53;;;;;;;;;;;;;;;12.30;70.50;100058.34;447491;119;921574;-75
2021/09/03 03:20:56;;;;;;;;;;;;;;;12.27;70.81;100056.09;454235;115;921580;-76
2021/09/03 03:21:59;;;;;;;;;;;;;;;12.26;70.89;100061.79;453040;114;921596;-77
2021/09/03 03:23:02;;;;;;;;;;;;;;;12.25;71.05;100069.16;453349;114;921466;-76
2021/09/03 03:24:05;;;;;;;;;;;;;;;12.26;71.04;100067.26;452257;114;921575;-75
2021/09/03 03:25:09;;;;;;;;;;;;;;;12.25;71.02;100063.69;453651;116;921726;-74
2021/09/03 03:26:12;;;;;;;;;;;;;;;12.26;71.04;100067.26;453003;114;921614;-76
2021/09/03 03:27:15;;;;;;;;;;;;;;;12.24;70.67;100070.22;452273;116;921659;-73
2021/09/03 03:28:20;;;;;;;;;;;;;;;12.25;70.94;100071.05;452796;115;921596;-75
2021/09/03 03:29:24;;;;;;;;;;;;;;;12.24;70.98;100072.16;454502;114;922094;-75
2021/09/03 03:30:27;;;;;;;;;;;;;;;12.24;70.94;100070.22;454016;114;921552;-73
2021/09/03 03:31:32;;;;;;;;;;;;;;;12.24;70.77;100066.69;454194;114;921633;-74
2021/09/03 03:32:35;;;;;;;;;;;;;;;12.23;70.69;100073.22;455148;114;921940;-73
2021/09/03 03:33:38;;;;;;;;;;;;;;;12.22;70.58;100072.38;453532;115;921557;-75
2021/09/03 03:34:41;;;;;;;;;;;;;;;12.20;70.36;100077.24;453874;114;921703;-73
2021/09/03 03:35:44;;;;;;;;;;;;;;;12.19;70.36;100077.47;453740;115;921528;-73
2021/09/03 03:36:47;;;;;;;;;;;;;;;12.17;70.59;100079.62;454453;117;921606;-73
2021/09/03 03:37:50;;;;;;;;;;;;;;;12.16;70.65;100075.23;454394;114;921468;-73
2021/09/03 03:38:53;;;;;;;;;;;;;;;12.12;70.31;100077.61;454301;114;921479;-72
2021/09/03 03:39:57;;;;;;;;;;;;;;;12.10;70.09;100079.73;454704;114;921515;-75
2021/09/03 03:41:00;;;;;;;;;;;;;;;12.07;70.27;100078.30;455567;117;921512;-74
2021/09/03 03:42:04;;;;;;;;;;;;;;;12.05;70.15;100085.09;455016;114;921647;-73
2021/09/03 03:43:07;;;;;;;;;;;;;;;12.01;70.37;100090.20;458493;113;921772;-72
2021/09/03 03:44:10;;;;;;;;;;;;;;;12.00;70.50;100082.23;449178;116;921659;-74
2021/09/03 03:45:13;;;;;;;;;;;;;;;12.00;70.55;100085.80;450465;116;921448;-72
2021/09/03 03:46:17;;;;;;;;;;;;;;;12.00;70.66;100090.43;447675;115;921537;-74
2021/09/03 03:47:20;;;;;;;;;;;;;;;12.00;70.55;100088.53;453962;116;921544;-74
2021/09/03 03:48:25;;;;;;;;;;;;;;;12.02;70.60;100086.38;453752;115;921682;-72
2021/09/03 03:49:28;;;;;;;;;;;;;;;12.03;70.63;100087.21;454594;114;921779;-74
2021/09/03 03:50:32;;;;;;;;;;;;;;;12.04;70.54;100092.45;453962;115;921512;-73
2021/09/03 03:51:35;;;;;;;;;;;;;;;12.04;70.51;100092.45;454522;115;921560;-73
2021/09/03 03:52:38;;;;;;;;;;;;;;;12.06;70.54;100098.52;455156;115;921471;-74
2021/09/03 03:53:41;;;;;;;;;;;;;;;12.05;69.95;100096.02;454108;115;921581;-74
2021/09/03 03:54:45;;;;;;;;;;;;;;;12.05;69.74;100098.75;454444;116;921523;-74
2021/09/03 03:55:48;;;;;;;;;;;;;;;12.03;69.94;100101.70;454500;116;921992;-74
2021/09/03 03:56:51;;;;;;;;;;;;;;;12.03;69.99;100100.88;456089;115;921485;-74
2021/09/03 03:57:54;;;;;;;;;;;;;;;12.02;69.78;100097.30;447426;117;921713;-72
2021/09/03 03:58:57;;;;;;;;;;;;;;;12.02;69.84;100104.67;448126;116;921524;-74
2021/09/03 04:00:00;;;;;;;;;;;;;;;12.01;69.91;100106.59;457209;114;922553;-74
2021/09/03 04:01:06;;;;;;;;;;;;;;;12.01;69.85;100109.33;454414;114;921686;-72
2021/09/03 04:02:10;;;;;;;;;;;;;;;12.01;69.93;100113.95;460112;113;921597;-73
2021/09/03 04:03:14;;;;;;;;;;;;;;;12.00;70.05;100113.12;446980;117;921526;-74
2021/09/03 04:04:17;;;;;;;;;;;;;;;12.00;70.14;100113.12;448001;116;921584;-73
2021/09/03 04:05:20;;;;;;;;;;;;;;;11.99;69.34;100127.84;455117;114;921600;-78
2021/09/03 04:06:24;;;;;;;;;;;;;;;11.98;69.43;100115.25;453885;115;921549;-72
2021/09/03 04:07:27;;;;;;;;;;;;;;;11.96;69.42;100125.56;454913;115;921540;-73
2021/09/03 04:08:30;;;;;;;;;;;;;;;11.94;69.26;100121.42;454211;115;921662;-73
2021/09/03 04:09:33;;;;;;;;;;;;;;;11.92;69.19;100124.38;455036;115;921623;-73
2021/09/03 04:10:36;;;;;;;;;;;;;;;11.92;69.28;100118.08;454809;115;921661;-74
2021/09/03 04:11:41;;;;;;;;;;;;;;;11.90;69.42;100115.61;447120;117;921574;-72
2021/09/03 04:12:44;;;;;;;;;;;;;;;11.89;69.14;100119.40;447674;116;921532;-73
2021/09/03 04:13:47;;;;;;;;;;;;;;;11.89;69.43;100119.40;453929;115;921601;-75
2021/09/03 04:14:50;;;;;;;;;;;;;;;11.88;69.56;100115.00;449911;116;921607;-76
2021/09/03 04:15:54;;;;;;;;;;;;;;;11.90;69.63;100122.97;450387;116;921468;-74
2021/09/03 04:16:57;;;;;;;;;;;;;;;11.91;69.60;100121.91;448185;115;921544;-73
2021/09/03 04:18:00;;;;;;;;;;;;;;;11.91;69.64;100122.70;459685;114;921512;-73
2021/09/03 04:19:03;;;;;;;;;;;;;;;11.92;69.70;100118.92;453271;115;921757;-71
2021/09/03 04:20:07;;;;;;;;;;;;;;;11.94;69.45;100122.26;444709;117;921778;-73
2021/09/03 04:21:10;;;;;;;;;;;;;;;11.95;69.28;100128.56;445586;116;921663;-73
2021/09/03 04:22:13;;;;;;;;;;;;;;;11.95;69.27;100136.75;451978;115;921512;-73
2021/09/03 04:23:18;;;;;;;;;;;;;;;11.94;69.30;100135.92;456723;114;921604;-76
2021/09/03 04:24:23;;;;;;;;;;;;;;;11.94;69.20;100137.81;449990;115;921509;-73
2021/09/03 04:25:26;;;;;;;;;;;;;;;11.93;69.30;100136.98;453409;114;921608;-73
2021/09/03 04:26:29;;;;;;;;;;;;;;;11.94;69.48;100140.55;453039;114;921536;-74
2021/09/03 04:27:32;;;;;;;;;;;;;;;11.95;69.49;100136.75;453120;115;921611;-72
2021/09/03 04:28:36;;;;;;;;;;;;;;;11.96;69.54;100143.89;453944;114;921620;-75
2021/09/03 04:29:39;;;;;;;;;;;;;;;11.98;69.52;100153.50;452632;115;921509;-71
2021/09/03 04:30:42;;;;;;;;;;;;;;;11.98;69.23;100144.47;453784;117;921517;-72
2021/09/03 04:31:45;;;;;;;;;;;;;;;11.99;69.35;100149.70;452650;117;921658;-79
2021/09/03 04:32:49;;;;;;;;;;;;;;;12.01;69.50;100152.21;453607;114;921596;-74
2021/09/03 04:33:52;;;;;;;;;;;;;;;12.01;69.46;100146.75;447829;115;921804;-74
2021/09/03 04:34:55;;;;;;;;;;;;;;;12.02;69.52;100159.31;448380;115;921584;-74
2021/09/03 04:35:58;;;;;;;;;;;;;;;12.02;69.44;100156.59;454029;117;921659;-73
2021/09/03 04:37:01;;;;;;;;;;;;;;;12.02;69.21;100151.12;453896;116;921490;-73
2021/09/03 04:38:04;;;;;;;;;;;;;;;12.01;69.27;100158.52;452950;114;921434;-72
2021/09/03 04:39:07;;;;;;;;;;;;;;;12.03;69.38;100155.52;453773;114;921570;-74
2021/09/03 04:40:13;;;;;;;;;;;;;;;12.02;69.44;100159.31;453535;114;921575;-74
2021/09/03 04:41:16;;;;;;;;;;;;;;;12.04;69.48;100160.77;455003;114;921533;-72
2021/09/03 04:42:22;;;;;;;;;;;;;;;12.07;69.34;100173.14;455246;114;921686;-78
2021/09/03 04:43:26;;;;;;;;;;;;;;;12.08;68.74;100170.15;454562;114;922099;-73
2021/09/03 04:44:30;;;;;;;;;;;;;;;12.08;68.62;100172.05;453308;114;922020;-73
2021/09/03 04:45:33;;;;;;;;;;;;;;;12.07;68.87;100162.20;454358;114;921751;-74
2021/09/03 04:46:36;;;;;;;;;;;;;;;12.08;69.08;100174.78;452682;114;921766;-72
2021/09/03 04:47:40;;;;;;;;;;;;;;;12.10;69.20;100169.92;454143;116;921591;-72
2021/09/03 04:48:43;;;;;;;;;;;;;;;12.11;69.38;100172.43;454602;114;921575;-73
2021/09/03 04:49:46;;;;;;;;;;;;;;;12.15;68.86;100174.68;452994;116;921624;-73
2021/09/03 04:50:51;;;;;;;;;;;;;;;12.17;68.92;100178.02;453870;114;921686;-73
2021/09/03 04:51:55;;;;;;;;;;;;;;;12.18;68.95;100186.00;452764;114;921544;-73
2021/09/03 04:52:58;;;;;;;;;;;;;;;12.20;68.70;100177.53;454248;116;921644;-73
2021/09/03 04:54:01;;;;;;;;;;;;;;;12.23;68.20;100183.39;453647;115;921620;-74
2021/09/03 04:55:05;;;;;;;;;;;;;;;12.25;68.24;100183.13;454149;116;921636;-72
2021/09/03 04:56:09;;;;;;;;;;;;;;;12.26;67.99;100182.91;453735;114;921544;-72
2021/09/03 04:57:12;;;;;;;;;;;;;;;12.25;67.59;100186.70;453121;117;921519;-73
2021/09/03 04:58:15;;;;;;;;;;;;;;;12.24;67.67;100184.22;453869;114;921525;-72
2021/09/03 04:59:19;;;;;;;;;;;;;;;12.22;67.82;100178.14;453857;114;921484;-73
2021/09/03 05:00:22;;;;;;;;;;;;;;;12.20;68.11;100178.38;454032;114;921456;-72
2021/09/03 05:01:26;;;;;;;;;;;;;;;12.23;68.04;100182.55;455710;117;921615;-72
2021/09/03 05:02:29;;;;;;;;;;;;;;;12.23;67.96;100177.92;450713;116;921579;-72
2021/09/03 05:03:32;;;;;;;;;;;;;;;12.24;67.65;100179.56;450660;116;921618;-72
2021/09/03 05:04:36;;;;;;;;;;;;;;;12.27;67.70;100183.73;453238;115;921678;-72
2021/09/03 05:05:39;;;;;;;;;;;;;;;12.27;67.39;100187.30;449857;117;921548;-76
2021/09/03 05:06:42;;;;;;;;;;;;;;;12.29;67.79;100181.61;450205;116;921675;-73
2021/09/03 05:07:45;;;;;;;;;;;;;;;12.31;68.04;100191.22;449726;115;922186;-72
2021/09/03 05:08:49;;;;;;;;;;;;;;;12.33;67.99;100186.37;453693;115;921698;-71
2021/09/03 05:09:52;;;;;;;;;;;;;;;12.37;67.61;100197.66;454124;116;921638;-73
2021/09/03 05:10:55;;;;;;;;;;;;;;;12.39;67.34;100192.80;454540;114;921504;-77
2021/09/03 05:12:00;;;;;;;;;;;;;;;12.41;67.38;100191.47;454001;115;921661;-72
2021/09/03 05:13:03;;;;;;;;;;;;;;;12.41;67.24;100202.41;449227;116;921547;-71
2021/09/03 05:14:06;;;;;;;;;;;;;;;12.43;67.05;100197.55;448049;116;921824;-74
2021/09/03 05:15:13;;;;;;;;;;;;;;;12.43;67.21;100193.98;449024;116;921557;-72
2021/09/03 05:16:16;;;;;;;;;;;;;;;12.45;67.30;100200.05;451811;115;921539;-72
2021/09/03 05:17:21;;;;;;;;;;;;;;;12.44;67.19;100196.48;452448;115;921557;-72
2021/09/03 05:18:24;;;;;;;;;;;;;;;12.43;66.59;100211.22;452362;116;922302;-73
2021/09/03 05:19:27;;;;;;;;;;;;;;;12.41;66.39;100207.04;449091;116;921471;-73
2021/09/03 05:20:31;;;;;;;;;;;;;;;12.39;66.49;100207.30;451092;116;921659;-73
2021/09/03 05:21:34;;;;;;;;;;;;;;;12.37;66.67;100212.16;454110;115;921558;-72
2021/09/03 05:22:38;;;;;;;;;;;;;;;12.36;66.75;100212.39;448770;115;921627;-73